createdAt,value
2022-09-26T00:02:18.357Z,97.85
2022-09-26T00:07:22.656Z,98.01
2022-09-26T00:12:26.206Z,97.14
2022-09-26T00:17:30.716Z,96.96
2022-09-26T00:22:34.493Z,97.74
2022-09-26T00:27:38.120Z,98.26
2022-09-26T00:32:41.660Z,98.52
2022-09-26T00:37:45.353Z,97.61
2022-09-26T00:42:48.960Z,97.93
2022-09-26T00:47:58.945Z,98.22
2022-09-26T00:53:09.348Z,97.75
2022-09-26T00:58:16.664Z,97.47
2022-09-26T01:03:22.393Z,97.30
2022-09-26T01:08:33.079Z,97.57
2022-09-26T01:13:38.778Z,98.09
2022-09-26T01:18:42.836Z,98.30
2022-09-26T01:24:13.082Z,98.75
2022-09-26T01:29:52.572Z,98.99
2022-09-26T01:35:05.569Z,98.74
2022-09-26T01:40:16.669Z,99.01
2022-09-26T01:45:24.411Z,99.11
2022-09-26T01:50:35.055Z,99.12
2022-09-26T01:55:42.257Z,99.76
2022-09-26T02:00:49.618Z,99.00
2022-09-26T02:05:59.219Z,98.32
2022-09-26T02:11:09.021Z,98.35
2022-09-26T02:16:18.395Z,97.99
2022-09-26T02:21:24.641Z,98.15
2022-09-26T02:26:29.267Z,98.97
2022-09-26T02:31:36.734Z,99.05
2022-09-26T02:36:40.943Z,98.38
2022-09-26T02:41:50.672Z,97.68
2022-09-26T02:47:21.931Z,97.03
2022-09-26T02:52:40.075Z,97.70
2022-09-26T02:57:56.425Z,97.50
2022-09-26T03:03:08.043Z,98.07
2022-09-26T03:08:16.224Z,98.56
2022-09-26T03:13:20.531Z,98.89
2022-09-26T03:18:32.130Z,98.65
2022-09-26T03:23:35.994Z,99.03
2022-09-26T03:28:39.570Z,99.44
2022-09-26T03:33:43.083Z,99.77
2022-09-26T03:38:46.658Z,100.00
2022-09-26T03:43:50.521Z,100.00
2022-09-26T03:48:54.697Z,100.00
2022-09-26T03:53:58.326Z,99.95
2022-09-26T03:59:02.193Z,100.00
2022-09-26T04:04:05.806Z,99.83
2022-09-26T04:09:15.870Z,99.27
2022-09-26T04:14:21.281Z,99.22
2022-09-26T04:19:26.062Z,99.30
2022-09-26T04:24:29.684Z,99.68
2022-09-26T04:29:34.433Z,99.88
2022-09-26T04:34:39.604Z,100.00
2022-09-26T04:39:43.610Z,100.00
2022-09-26T04:44:48.043Z,100.00
2022-09-26T04:49:52.076Z,100.00
2022-09-26T04:54:55.691Z,100.00
2022-09-26T04:59:59.302Z,100.00
2022-09-26T05:05:05.541Z,100.00
2022-09-26T05:10:10.862Z,100.00
2022-09-26T05:15:14.444Z,99.87
2022-09-26T05:20:19.835Z,99.86
2022-09-26T05:25:41.062Z,99.76
2022-09-26T05:30:44.666Z,100.00
2022-09-26T05:35:52.953Z,100.00
2022-09-26T05:40:57.671Z,100.00
2022-09-26T05:46:04.141Z,100.00
2022-09-26T05:51:10.448Z,100.00
2022-09-26T05:56:19.040Z,100.00
2022-09-26T06:01:23.941Z,100.00
2022-09-26T06:06:27.690Z,100.00
2022-09-26T06:11:31.911Z,100.00
2022-09-26T06:16:35.543Z,100.00
2022-09-26T06:21:39.766Z,100.00
2022-09-26T06:26:43.424Z,100.00
2022-09-26T06:31:48.231Z,100.00
2022-09-26T06:36:52.963Z,100.00
2022-09-26T06:41:57.001Z,99.87
2022-09-26T06:47:01.360Z,100.00
2022-09-26T06:52:05.134Z,99.66
2022-09-26T06:57:14.168Z,99.98
2022-09-26T07:02:19.406Z,99.65
2022-09-26T07:07:23.357Z,99.49
2022-09-26T07:12:28.024Z,99.26
2022-09-26T07:17:31.735Z,99.39
2022-09-26T07:22:35.497Z,99.12
2022-09-26T07:27:39.370Z,99.16
2022-09-26T07:34:46.296Z,98.99
2022-09-26T07:39:54.762Z,98.66
2022-09-26T07:45:27.891Z,98.61
2022-09-26T07:50:29.075Z,98.69
2022-09-26T07:55:56.138Z,98.01
2022-09-26T08:01:02.452Z,97.57
2022-09-26T08:06:10.126Z,97.48
2022-09-26T08:11:19.873Z,97.29
2022-09-26T08:16:27.071Z,97.03
2022-09-26T08:21:35.395Z,97.02
2022-09-26T08:26:44.629Z,96.88
2022-09-26T08:31:55.131Z,96.90
2022-09-26T08:37:02.664Z,96.63
2022-09-26T08:42:24.342Z,96.94
2022-09-26T08:47:44.806Z,96.80
2022-09-26T08:52:55.476Z,96.84
2022-09-26T08:58:06.740Z,96.87
2022-09-26T09:03:27.603Z,97.01
2022-09-26T09:08:39.887Z,96.94
2022-09-26T09:13:57.687Z,96.65
2022-09-26T09:19:14.363Z,96.68
2022-09-26T09:24:39.593Z,97.21
2022-09-26T09:30:15.730Z,97.34
2022-09-26T09:35:31.402Z,98.18
2022-09-26T09:40:42.864Z,98.49
2022-09-26T09:45:52.640Z,98.87
2022-09-26T09:51:13.557Z,99.46
2022-09-26T09:56:32.389Z,99.83
2022-09-26T10:01:43.737Z,99.72
2022-09-26T10:06:52.787Z,99.86
2022-09-26T10:12:00.274Z,99.96
2022-09-26T10:17:22.571Z,99.88
2022-09-26T10:22:37.607Z,99.76
2022-09-26T10:27:51.894Z,100.00
2022-09-26T10:33:01.625Z,100.00
2022-09-26T10:38:19.990Z,100.00
2022-09-26T10:43:33.802Z,100.00
2022-09-26T10:48:49.057Z,100.00
2022-09-26T10:54:01.335Z,100.00
2022-09-26T10:59:10.363Z,100.00
2022-09-26T11:04:39.422Z,100.00
2022-09-26T11:09:48.449Z,100.00
2022-09-26T11:14:59.637Z,99.52
2022-09-26T11:20:10.823Z,99.15
2022-09-26T11:25:25.719Z,98.80
2022-09-26T11:30:35.932Z,98.55
2022-09-26T11:35:56.401Z,98.23
2022-09-26T11:41:36.920Z,97.52
2022-09-26T11:46:58.699Z,96.66
2022-09-26T11:52:18.109Z,96.32
2022-09-26T11:57:45.725Z,95.76
2022-09-26T12:03:17.362Z,94.94
2022-09-26T12:08:40.779Z,94.67
2022-09-26T12:13:55.109Z,94.90
2022-09-26T12:19:11.608Z,94.00
2022-09-26T12:24:32.664Z,92.25
2022-09-26T12:29:45.713Z,91.03
2022-09-26T12:35:08.323Z,91.07
2022-09-26T12:40:33.521Z,91.11
2022-09-26T12:46:10.746Z,90.39
2022-09-26T12:51:28.838Z,88.60
2022-09-26T12:56:49.088Z,88.21
2022-09-26T13:02:19.612Z,87.95
2022-09-26T13:07:42.376Z,86.87
2022-09-26T13:13:23.678Z,86.35
2022-09-26T13:18:39.988Z,86.25
2022-09-26T13:23:54.166Z,86.29
2022-09-26T13:29:17.281Z,85.23
2022-09-26T13:34:35.586Z,84.48
2022-09-26T13:39:49.260Z,84.83
2022-09-26T13:45:09.120Z,84.59
2022-09-26T13:50:34.115Z,84.62
2022-09-26T13:55:43.510Z,84.86
2022-09-26T14:00:53.603Z,85.53
2022-09-26T14:06:29.175Z,85.52
2022-09-26T14:11:51.585Z,84.99
2022-09-26T14:17:03.298Z,84.90
2022-09-26T14:29:55.937Z,82.81
2022-09-26T14:35:05.573Z,82.04
2022-09-26T14:40:29.075Z,81.71
2022-09-26T14:45:49.984Z,81.70
2022-09-26T14:51:00.648Z,82.13
2022-09-26T14:56:11.665Z,82.41
2022-09-26T15:01:25.193Z,82.89
2022-09-26T15:06:37.978Z,83.45
2022-09-26T15:11:47.682Z,84.01
2022-09-26T15:16:58.054Z,84.18
2022-09-26T15:22:13.511Z,84.18
2022-09-26T15:27:27.294Z,84.52
2022-09-26T15:32:35.187Z,84.57
2022-09-26T15:37:42.752Z,85.18
2022-09-26T15:43:03.308Z,84.86
2022-09-26T15:48:27.584Z,84.88
2022-09-26T15:53:39.915Z,85.51
2022-09-26T15:58:53.887Z,86.18
2022-09-26T16:04:03.604Z,86.86
2022-09-26T16:09:20.807Z,87.04
2022-09-26T16:14:33.496Z,87.14
2022-09-26T16:19:47.769Z,87.59
2022-09-26T16:24:55.376Z,88.09
2022-09-26T16:30:05.278Z,88.50
2022-09-26T16:35:20.332Z,88.37
2022-09-26T16:40:28.056Z,88.53
2022-09-26T16:45:36.086Z,89.40
2022-09-26T16:50:43.485Z,90.49
2022-09-26T16:55:52.693Z,90.95
2022-09-26T17:01:17.472Z,91.03
2022-09-26T17:06:24.643Z,91.10
2022-09-26T17:11:31.650Z,91.27
2022-09-26T17:16:38.752Z,91.81
2022-09-26T17:21:49.492Z,92.43
2022-09-26T17:27:02.361Z,93.06
2022-09-26T17:32:15.403Z,93.14
2022-09-26T17:37:23.291Z,93.49
2022-09-26T17:42:30.832Z,93.90
2022-09-26T17:47:38.045Z,94.40
2022-09-26T17:52:45.465Z,94.52
2022-09-26T17:57:52.460Z,94.99
2022-09-26T18:03:05.162Z,95.76
2022-09-26T18:08:22.324Z,96.21
2022-09-26T18:13:34.139Z,96.31
2022-09-26T18:18:41.019Z,96.95
2022-09-26T18:23:51.914Z,96.88
2022-09-26T18:29:00.091Z,96.85
2022-09-26T18:34:08.055Z,96.43
2022-09-26T18:39:15.326Z,96.45
2022-09-26T18:44:22.834Z,96.04
2022-09-26T18:49:31.225Z,95.89
2022-09-26T18:54:38.684Z,94.97
2022-09-26T18:59:45.823Z,95.33
2022-09-26T19:04:54.973Z,95.79
2022-09-26T19:10:02.632Z,96.06
2022-09-26T19:15:16.632Z,95.26
2022-09-26T19:20:23.840Z,94.72
2022-09-26T19:25:31.293Z,94.70
2022-09-26T19:30:38.620Z,95.06
2022-09-26T19:35:47.654Z,95.48
2022-09-26T19:40:55.160Z,94.54
2022-09-26T19:46:04.670Z,94.82
2022-09-26T19:51:17.046Z,94.96
2022-09-26T19:56:26.544Z,96.48
2022-09-26T20:01:34.036Z,96.04
2022-09-26T20:06:41.601Z,96.21
2022-09-26T20:11:48.853Z,97.19
2022-09-26T20:16:58.714Z,96.67
2022-09-26T20:22:12.839Z,95.97
2022-09-26T20:27:23.321Z,96.00
2022-09-26T20:32:30.425Z,96.26
2022-09-26T20:37:41.151Z,97.22
2022-09-26T20:42:51.937Z,98.48
2022-09-26T20:47:59.525Z,97.06
2022-09-26T20:53:17.544Z,96.83
2022-09-26T20:58:25.240Z,96.58
2022-09-26T21:03:33.286Z,96.78
2022-09-26T21:08:40.518Z,96.75
2022-09-26T21:13:47.736Z,98.13
2022-09-26T21:18:55.514Z,98.97
2022-09-26T21:24:03.359Z,99.55
2022-09-26T21:29:17.261Z,99.74
2022-09-26T21:34:27.160Z,99.88
2022-09-26T21:39:34.544Z,99.65
2022-09-26T21:44:44.741Z,99.09
2022-09-26T21:49:51.883Z,98.85
2022-09-26T21:55:00.717Z,98.92
2022-09-26T22:00:10.558Z,99.34
2022-09-26T22:05:18.588Z,99.94
2022-09-26T22:10:26.012Z,99.95
2022-09-26T22:17:04.391Z,99.56
2022-09-26T22:22:11.368Z,99.89
2022-09-26T22:27:16.629Z,99.96
2022-09-26T22:32:23.646Z,100.00
2022-09-26T22:37:31.044Z,100.00
2022-09-26T22:42:38.142Z,99.97
2022-09-26T22:47:43.406Z,100.00
2022-09-26T22:52:50.236Z,99.48
2022-09-26T22:57:55.576Z,99.31
2022-09-26T23:03:02.374Z,99.48
2022-09-26T23:08:09.468Z,99.98
2022-09-26T23:13:16.364Z,99.68
2022-09-26T23:18:22.082Z,99.58
2022-09-26T23:23:28.936Z,99.66
2022-09-26T23:28:36.440Z,99.58
2022-09-26T23:33:43.337Z,99.82
2022-09-26T23:38:53.509Z,99.85
2022-09-26T23:44:00.680Z,99.85
2022-09-26T23:49:07.806Z,99.99
2022-09-26T23:54:13.124Z,100.00
2022-09-26T23:59:19.975Z,100.00
